sensor_id;sensor_type;location;lat;lon;timestamp;temperature;humidity
8736;DHT22;4404;49.308;12.178;2023-07-22T05:43:08;14.20;99.90
8736;DHT22;4404;49.308;12.178;2023-07-22T05:45:10;14.30;99.90
8736;DHT22;4404;49.308;12.178;2023-07-22T05:47:14;14.30;99.90
8736;DHT22;4404;49.308;12.178;2023-07-22T05:49:16;14.50;99.90
8736;DHT22;4404;49.308;12.178;2023-07-22T05:51:18;14.70;99.90
8736;DHT22;4404;49.308;12.178;2023-07-22T05:53:20;14.80;99.90
8736;DHT22;4404;49.308;12.178;2023-07-22T05:55:22;15.00;99.90
8736;DHT22;4404;49.308;12.178;2023-07-22T05:57:24;15.10;99.90
8736;DHT22;4404;49.308;12.178;2023-07-22T05:59:27;15.10;99.90
8736;DHT22;4404;49.308;12.178;2023-07-22T06:01:30;15.20;99.90
8736;DHT22;4404;49.308;12.178;2023-07-22T06:03:32;15.20;99.90
8736;DHT22;4404;49.308;12.178;2023-07-22T06:05:34;15.40;99.90
8736;DHT22;4404;49.308;12.178;2023-07-22T06:07:36;15.50;99.90
8736;DHT22;4404;49.308;12.178;2023-07-22T06:09:38;15.60;99.90
8736;DHT22;4404;49.308;12.178;2023-07-22T06:11:40;15.70;99.90
8736;DHT22;4404;49.308;12.178;2023-07-22T06:13:42;15.70;99.90
8736;DHT22;4404;49.308;12.178;2023-07-22T06:15:46;15.80;99.90
8736;DHT22;4404;49.308;12.178;2023-07-22T06:17:48;15.90;99.90
8736;DHT22;4404;49.308;12.178;2023-07-22T06:19:50;16.00;99.90
8736;DHT22;4404;49.308;12.178;2023-07-22T06:21:52;16.10;99.90
8736;DHT22;4404;49.308;12.178;2023-07-22T06:23:54;16.10;99.90
8736;DHT22;4404;49.308;12.178;2023-07-22T06:25:57;16.10;99.90
8736;DHT22;4404;49.308;12.178;2023-07-22T06:27:59;16.20;99.90
8736;DHT22;4404;49.308;12.178;2023-07-22T06:30:01;16.30;99.90
8736;DHT22;4404;49.308;12.178;2023-07-22T06:32:05;16.40;99.90
8736;DHT22;4404;49.308;12.178;2023-07-22T06:34:08;16.40;99.90
8736;DHT22;4404;49.308;12.178;2023-07-22T06:36:11;16.50;99.90
8736;DHT22;4404;49.308;12.178;2023-07-22T06:38:12;16.60;99.90
8736;DHT22;4404;49.308;12.178;2023-07-22T06:40:14;16.70;99.90
8736;DHT22;4404;49.308;12.178;2023-07-22T06:42:16;16.70;99.90
8736;DHT22;4404;49.308;12.178;2023-07-22T06:44:19;16.80;99.90
8736;DHT22;4404;49.308;12.178;2023-07-22T06:46:21;16.70;99.90
8736;DHT22;4404;49.308;12.178;2023-07-22T06:48:24;16.70;99.90
8736;DHT22;4404;49.308;12.178;2023-07-22T06:50:26;16.80;99.90
8736;DHT22;4404;49.308;12.178;2023-07-22T06:52:28;16.80;99.90
8736;DHT22;4404;49.308;12.178;2023-07-22T06:54:31;16.80;99.90
8736;DHT22;4404;49.308;12.178;2023-07-22T06:56:33;16.70;99.90
8736;DHT22;4404;49.308;12.178;2023-07-22T06:58:35;16.80;99.90
8736;DHT22;4404;49.308;12.178;2023-07-22T07:00:37;16.90;99.90
8736;DHT22;4404;49.308;12.178;2023-07-22T07:02:39;17.00;99.90
8736;DHT22;4404;49.308;12.178;2023-07-22T07:04:43;17.10;99.90
8736;DHT22;4404;49.308;12.178;2023-07-22T07:06:46;17.20;99.90
8736;DHT22;4404;49.308;12.178;2023-07-22T07:08:48;17.30;99.90
8736;DHT22;4404;49.308;12.178;2023-07-22T07:10:51;17.30;99.90
8736;DHT22;4404;49.308;12.178;2023-07-22T07:12:53;17.20;99.90
8736;DHT22;4404;49.308;12.178;2023-07-22T07:14:55;17.10;99.90
8736;DHT22;4404;49.308;12.178;2023-07-22T07:17:00;17.20;99.90
8736;DHT22;4404;49.308;12.178;2023-07-22T07:19:03;17.30;99.90
8736;DHT22;4404;49.308;12.178;2023-07-22T07:21:07;17.30;99.90
8736;DHT22;4404;49.308;12.178;2023-07-22T07:23:08;17.40;99.90
8736;DHT22;4404;49.308;12.178;2023-07-22T07:25:10;17.40;99.90
8736;DHT22;4404;49.308;12.178;2023-07-22T07:27:12;17.50;99.90
8736;DHT22;4404;49.308;12.178;2023-07-22T07:29:14;17.60;99.90
8736;DHT22;4404;49.308;12.178;2023-07-22T07:31:17;17.60;99.90
8736;DHT22;4404;49.308;12.178;2023-07-22T07:33:19;17.80;99.90
8736;DHT22;4404;49.308;12.178;2023-07-22T07:35:21;17.80;99.90
8736;DHT22;4404;49.308;12.178;2023-07-22T07:37:26;17.90;99.90
8736;DHT22;4404;49.308;12.178;2023-07-22T07:39:28;18.00;99.90
8736;DHT22;4404;49.308;12.178;2023-07-22T07:41:30;18.10;99.90
8736;DHT22;4404;49.308;12.178;2023-07-22T07:43:32;18.30;99.90
8736;DHT22;4404;49.308;12.178;2023-07-22T07:45:38;18.30;99.90
8736;DHT22;4404;49.308;12.178;2023-07-22T07:47:41;18.50;99.90
8736;DHT22;4404;49.308;12.178;2023-07-22T07:49:43;18.50;99.90
8736;DHT22;4404;49.308;12.178;2023-07-22T07:51:45;18.60;99.90
8736;DHT22;4404;49.308;12.178;2023-07-22T07:53:49;18.60;99.90
8736;DHT22;4404;49.308;12.178;2023-07-22T07:55:51;18.70;99.90
8736;DHT22;4404;49.308;12.178;2023-07-22T07:57:53;18.90;99.90
8736;DHT22;4404;49.308;12.178;2023-07-22T07:59:55;19.00;99.90
8736;DHT22;4404;49.308;12.178;2023-07-22T08:01:57;19.20;99.90
8736;DHT22;4404;49.308;12.178;2023-07-22T08:03:59;19.40;99.90
8736;DHT22;4404;49.308;12.178;2023-07-22T08:06:02;19.30;99.90
8736;DHT22;4404;49.308;12.178;2023-07-22T08:08:04;19.30;99.90
8736;DHT22;4404;49.308;12.178;2023-07-22T08:10:08;19.40;99.90
8736;DHT22;4404;49.308;12.178;2023-07-22T08:12:11;19.50;99.90
8736;DHT22;4404;49.308;12.178;2023-07-22T08:14:13;19.60;99.90
8736;DHT22;4404;49.308;12.178;2023-07-22T08:16:15;19.80;99.90
8736;DHT22;4404;49.308;12.178;2023-07-22T08:18:17;19.70;99.90
8736;DHT22;4404;49.308;12.178;2023-07-22T08:20:19;19.90;99.90
8736;DHT22;4404;49.308;12.178;2023-07-22T08:22:22;19.90;99.90
8736;DHT22;4404;49.308;12.178;2023-07-22T08:24:24;19.90;99.90
8736;DHT22;4404;49.308;12.178;2023-07-22T08:26:27;19.90;99.90
8736;DHT22;4404;49.308;12.178;2023-07-22T08:28:31;20.20;99.90
8736;DHT22;4404;49.308;12.178;2023-07-22T08:30:33;20.30;99.90
8736;DHT22;4404;49.308;12.178;2023-07-22T08:32:35;20.20;99.90
8736;DHT22;4404;49.308;12.178;2023-07-22T08:34:38;20.20;99.90
8736;DHT22;4404;49.308;12.178;2023-07-22T08:36:40;20.40;99.90
8736;DHT22;4404;49.308;12.178;2023-07-22T08:38:43;20.40;99.90
8736;DHT22;4404;49.308;12.178;2023-07-22T08:40:49;20.50;99.90
8736;DHT22;4404;49.308;12.178;2023-07-22T08:42:53;20.60;99.90
8736;DHT22;4404;49.308;12.178;2023-07-22T08:44:57;20.70;99.90
8736;DHT22;4404;49.308;12.178;2023-07-22T08:47:03;20.70;99.90
8736;DHT22;4404;49.308;12.178;2023-07-22T08:49:07;20.70;99.90
8736;DHT22;4404;49.308;12.178;2023-07-22T08:51:14;20.70;99.90
8736;DHT22;4404;49.308;12.178;2023-07-22T08:53:18;20.60;99.90
8736;DHT22;4404;49.308;12.178;2023-07-22T08:55:20;20.50;99.90
8736;DHT22;4404;49.308;12.178;2023-07-22T08:57:23;20.60;99.90
8736;DHT22;4404;49.308;12.178;2023-07-22T08:59:28;20.70;99.90
8736;DHT22;4404;49.308;12.178;2023-07-22T09:01:31;20.90;99.90
8736;DHT22;4404;49.308;12.178;2023-07-22T09:03:33;20.80;99.90
8736;DHT22;4404;49.308;12.178;2023-07-22T09:05:36;20.80;99.90
8736;DHT22;4404;49.308;12.178;2023-07-22T09:07:38;20.60;99.90
8736;DHT22;4404;49.308;12.178;2023-07-22T09:09:40;20.50;99.90
8736;DHT22;4404;49.308;12.178;2023-07-22T09:11:44;20.40;99.90
8736;DHT22;4404;49.308;12.178;2023-07-22T09:13:51;20.30;99.90
8736;DHT22;4404;49.308;12.178;2023-07-22T09:15:57;20.50;99.90
8736;DHT22;4404;49.308;12.178;2023-07-22T09:17:59;20.50;99.90
8736;DHT22;4404;49.308;12.178;2023-07-22T09:20:02;20.50;99.90
8736;DHT22;4404;49.308;12.178;2023-07-22T09:22:05;20.80;99.90
8736;DHT22;4404;49.308;12.178;2023-07-22T09:24:23;21.00;99.90
8736;DHT22;4404;49.308;12.178;2023-07-22T09:26:26;21.20;99.90
8736;DHT22;4404;49.308;12.178;2023-07-22T09:28:47;21.50;99.90
8736;DHT22;4404;49.308;12.178;2023-07-22T09:31:03;21.80;99.90
8736;DHT22;4404;49.308;12.178;2023-07-22T09:33:06;22.20;99.90
8736;DHT22;4404;49.308;12.178;2023-07-22T09:35:08;22.40;99.90
8736;DHT22;4404;49.308;12.178;2023-07-22T09:37:11;22.30;99.90
8736;DHT22;4404;49.308;12.178;2023-07-22T09:39:14;21.90;99.90
8736;DHT22;4404;49.308;12.178;2023-07-22T09:41:19;21.90;99.90
8736;DHT22;4404;49.308;12.178;2023-07-22T09:43:23;22.00;99.90
8736;DHT22;4404;49.308;12.178;2023-07-22T09:45:29;22.10;99.90
8736;DHT22;4404;49.308;12.178;2023-07-22T09:47:39;22.30;99.90
8736;DHT22;4404;49.308;12.178;2023-07-22T09:49:42;22.40;99.90
8736;DHT22;4404;49.308;12.178;2023-07-22T09:51:46;22.60;99.80
8736;DHT22;4404;49.308;12.178;2023-07-22T09:53:59;22.40;99.10
8736;DHT22;4404;49.308;12.178;2023-07-22T09:56:04;22.40;99.20
8736;DHT22;4404;49.308;12.178;2023-07-22T09:58:06;22.70;97.70
8736;DHT22;4404;49.308;12.178;2023-07-22T10:00:11;22.90;97.70
8736;DHT22;4404;49.308;12.178;2023-07-22T10:02:18;23.00;97.80
8736;DHT22;4404;49.308;12.178;2023-07-22T10:04:25;23.20;96.90
8736;DHT22;4404;49.308;12.178;2023-07-22T10:06:31;23.20;95.50
8736;DHT22;4404;49.308;12.178;2023-07-22T10:08:34;23.10;94.90
8736;DHT22;4404;49.308;12.178;2023-07-22T10:10:38;23.30;94.30
8736;DHT22;4404;49.308;12.178;2023-07-22T10:12:41;23.50;94.80
8736;DHT22;4404;49.308;12.178;2023-07-22T10:14:45;23.60;94.40
8736;DHT22;4404;49.308;12.178;2023-07-22T10:16:47;23.80;94.30
8736;DHT22;4404;49.308;12.178;2023-07-22T10:18:49;23.90;94.30
8736;DHT22;4404;49.308;12.178;2023-07-22T10:20:53;24.10;95.30
8736;DHT22;4404;49.308;12.178;2023-07-22T10:22:56;24.40;94.90
8736;DHT22;4404;49.308;12.178;2023-07-22T10:24:58;24.20;93.30
8736;DHT22;4404;49.308;12.178;2023-07-22T10:27:02;24.00;93.90
8736;DHT22;4404;49.308;12.178;2023-07-22T10:29:05;23.60;93.30
8736;DHT22;4404;49.308;12.178;2023-07-22T10:31:07;23.60;93.60
8736;DHT22;4404;49.308;12.178;2023-07-22T10:33:09;23.40;93.40
8736;DHT22;4404;49.308;12.178;2023-07-22T10:35:13;23.30;94.10
8736;DHT22;4404;49.308;12.178;2023-07-22T10:37:20;23.20;94.20
8736;DHT22;4404;49.308;12.178;2023-07-22T10:39:25;23.30;92.90
8736;DHT22;4404;49.308;12.178;2023-07-22T10:41:28;23.20;93.10
8736;DHT22;4404;49.308;12.178;2023-07-22T10:43:32;23.20;92.70
8736;DHT22;4404;49.308;12.178;2023-07-22T10:45:40;23.30;92.60
8736;DHT22;4404;49.308;12.178;2023-07-22T10:47:42;23.70;92.00
8736;DHT22;4404;49.308;12.178;2023-07-22T10:49:47;24.10;91.50
8736;DHT22;4404;49.308;12.178;2023-07-22T10:51:51;24.20;89.20
8736;DHT22;4404;49.308;12.178;2023-07-22T10:53:55;24.40;88.20
8736;DHT22;4404;49.308;12.178;2023-07-22T10:58:25;24.70;86.60
8736;DHT22;4404;49.308;12.178;2023-07-22T11:00:29;24.70;83.50
8736;DHT22;4404;49.308;12.178;2023-07-22T11:02:31;24.70;84.30
8736;DHT22;4404;49.308;12.178;2023-07-22T11:04:33;24.70;85.00
8736;DHT22;4404;49.308;12.178;2023-07-22T11:06:37;24.70;82.90
8736;DHT22;4404;49.308;12.178;2023-07-22T11:08:40;24.90;82.40
8736;DHT22;4404;49.308;12.178;2023-07-22T11:10:54;24.90;82.80
8736;DHT22;4404;49.308;12.178;2023-07-22T11:12:56;25.20;82.00
8736;DHT22;4404;49.308;12.178;2023-07-22T11:15:03;25.30;80.70
8736;DHT22;4404;49.308;12.178;2023-07-22T11:17:07;24.80;80.00
8736;DHT22;4404;49.308;12.178;2023-07-22T11:19:09;24.40;80.30
8736;DHT22;4404;49.308;12.178;2023-07-22T11:21:11;24.10;79.60
8736;DHT22;4404;49.308;12.178;2023-07-22T11:23:14;23.90;81.00
8736;DHT22;4404;49.308;12.178;2023-07-22T11:25:19;23.60;80.70
8736;DHT22;4404;49.308;12.178;2023-07-22T11:27:23;23.50;81.20
8736;DHT22;4404;49.308;12.178;2023-07-22T11:29:25;23.50;83.40
8736;DHT22;4404;49.308;12.178;2023-07-22T11:31:31;23.50;81.60
8736;DHT22;4404;49.308;12.178;2023-07-22T11:33:40;23.40;81.50
8736;DHT22;4404;49.308;12.178;2023-07-22T11:35:44;23.20;82.60
8736;DHT22;4404;49.308;12.178;2023-07-22T11:37:46;23.10;81.70
8736;DHT22;4404;49.308;12.178;2023-07-22T11:39:48;23.10;83.50
8736;DHT22;4404;49.308;12.178;2023-07-22T11:41:50;22.80;83.20
8736;DHT22;4404;49.308;12.178;2023-07-22T11:44:00;22.80;84.00
8736;DHT22;4404;49.308;12.178;2023-07-22T11:46:05;22.90;85.10
8736;DHT22;4404;49.308;12.178;2023-07-22T11:48:10;23.00;84.40
8736;DHT22;4404;49.308;12.178;2023-07-22T11:50:13;23.20;84.70
8736;DHT22;4404;49.308;12.178;2023-07-22T11:52:17;23.40;81.60
8736;DHT22;4404;49.308;12.178;2023-07-22T11:54:21;23.60;82.00
8736;DHT22;4404;49.308;12.178;2023-07-22T11:56:24;24.00;84.40
8736;DHT22;4404;49.308;12.178;2023-07-22T11:58:28;24.40;81.00
8736;DHT22;4404;49.308;12.178;2023-07-22T12:00:34;24.50;78.10
8736;DHT22;4404;49.308;12.178;2023-07-22T12:02:36;24.60;78.00
8736;DHT22;4404;49.308;12.178;2023-07-22T12:04:39;25.20;78.30
8736;DHT22;4404;49.308;12.178;2023-07-22T12:06:42;25.50;76.40
8736;DHT22;4404;49.308;12.178;2023-07-22T12:08:46;25.60;74.90
8736;DHT22;4404;49.308;12.178;2023-07-22T12:10:56;25.60;72.50
8736;DHT22;4404;49.308;12.178;2023-07-22T12:13:01;25.70;74.20
8736;DHT22;4404;49.308;12.178;2023-07-22T12:15:10;25.80;71.80
8736;DHT22;4404;49.308;12.178;2023-07-22T12:17:17;25.70;72.00
8736;DHT22;4404;49.308;12.178;2023-07-22T12:19:19;25.80;73.90
8736;DHT22;4404;49.308;12.178;2023-07-22T12:21:22;25.80;69.90
8736;DHT22;4404;49.308;12.178;2023-07-22T12:23:24;25.40;70.00
8736;DHT22;4404;49.308;12.178;2023-07-22T12:25:25;25.40;70.50
8736;DHT22;4404;49.308;12.178;2023-07-22T12:27:27;25.30;70.80
8736;DHT22;4404;49.308;12.178;2023-07-22T12:29:29;25.40;69.40
8736;DHT22;4404;49.308;12.178;2023-07-22T12:31:32;25.70;68.80
8736;DHT22;4404;49.308;12.178;2023-07-22T12:33:35;25.50;70.00
8736;DHT22;4404;49.308;12.178;2023-07-22T12:35:37;25.60;68.40
8736;DHT22;4404;49.308;12.178;2023-07-22T12:37:40;26.30;68.10
8736;DHT22;4404;49.308;12.178;2023-07-22T12:39:42;27.70;65.80
8736;DHT22;4404;49.308;12.178;2023-07-22T12:41:44;27.20;64.40
8736;DHT22;4404;49.308;12.178;2023-07-22T12:43:46;27.00;64.50
8736;DHT22;4404;49.308;12.178;2023-07-22T12:45:49;26.70;65.10
8736;DHT22;4404;49.308;12.178;2023-07-22T12:47:51;26.30;65.20
8736;DHT22;4404;49.308;12.178;2023-07-22T12:49:55;25.80;66.30
8736;DHT22;4404;49.308;12.178;2023-07-22T12:51:57;25.60;65.70
8736;DHT22;4404;49.308;12.178;2023-07-22T12:54:04;25.20;68.40
8736;DHT22;4404;49.308;12.178;2023-07-22T12:56:06;25.00;68.30
8736;DHT22;4404;49.308;12.178;2023-07-22T12:58:07;24.80;69.30
8736;DHT22;4404;49.308;12.178;2023-07-22T13:00:10;24.80;69.60
8736;DHT22;4404;49.308;12.178;2023-07-22T13:02:13;25.00;69.20
8736;DHT22;4404;49.308;12.178;2023-07-22T13:04:15;25.10;68.00
8736;DHT22;4404;49.308;12.178;2023-07-22T13:06:19;25.10;68.20
8736;DHT22;4404;49.308;12.178;2023-07-22T13:08:22;25.20;67.50
8736;DHT22;4404;49.308;12.178;2023-07-22T13:10:24;25.70;65.30
8736;DHT22;4404;49.308;12.178;2023-07-22T13:12:26;26.10;66.20
8736;DHT22;4404;49.308;12.178;2023-07-22T13:14:28;26.30;63.60
8736;DHT22;4404;49.308;12.178;2023-07-22T13:16:31;26.10;64.00
8736;DHT22;4404;49.308;12.178;2023-07-22T13:18:33;26.00;64.30
8736;DHT22;4404;49.308;12.178;2023-07-22T13:20:35;25.70;65.90
8736;DHT22;4404;49.308;12.178;2023-07-22T13:22:38;25.80;66.20
8736;DHT22;4404;49.308;12.178;2023-07-22T13:24:41;25.70;66.20
8736;DHT22;4404;49.308;12.178;2023-07-22T13:26:43;25.70;66.80
8736;DHT22;4404;49.308;12.178;2023-07-22T13:28:48;26.00;65.90
8736;DHT22;4404;49.308;12.178;2023-07-22T13:30:49;26.40;64.30
8736;DHT22;4404;49.308;12.178;2023-07-22T13:35:27;26.70;62.10
8736;DHT22;4404;49.308;12.178;2023-07-22T13:37:32;26.10;63.20
8736;DHT22;4404;49.308;12.178;2023-07-22T13:46:00;25.10;66.80
8736;DHT22;4404;49.308;12.178;2023-07-22T13:48:40;25.00;66.90
8736;DHT22;4404;49.308;12.178;2023-07-22T13:50:42;23.60;65.60
8736;DHT22;4404;49.308;12.178;2023-07-22T13:52:44;25.40;66.70
8736;DHT22;4404;49.308;12.178;2023-07-22T13:54:48;25.60;67.30
8736;DHT22;4404;49.308;12.178;2023-07-22T13:56:51;25.90;64.90
8736;DHT22;4404;49.308;12.178;2023-07-22T13:58:54;26.10;65.50
8736;DHT22;4404;49.308;12.178;2023-07-22T14:01:06;26.10;63.70
8736;DHT22;4404;49.308;12.178;2023-07-22T14:03:09;26.00;62.40
8736;DHT22;4404;49.308;12.178;2023-07-22T14:05:11;25.90;63.40
8736;DHT22;4404;49.308;12.178;2023-07-22T14:07:13;25.80;63.80
8736;DHT22;4404;49.308;12.178;2023-07-22T14:09:15;25.80;64.10
8736;DHT22;4404;49.308;12.178;2023-07-22T14:11:18;25.90;62.70
8736;DHT22;4404;49.308;12.178;2023-07-22T14:13:21;25.60;62.20
8736;DHT22;4404;49.308;12.178;2023-07-22T14:18:04;25.40;62.80
8736;DHT22;4404;49.308;12.178;2023-07-22T14:22:23;25.40;61.60
8736;DHT22;4404;49.308;12.178;2023-07-22T14:34:39;26.00;60.60
8736;DHT22;4404;49.308;12.178;2023-07-22T14:36:41;26.10;61.30
8736;DHT22;4404;49.308;12.178;2023-07-22T14:38:44;26.10;62.20
8736;DHT22;4404;49.308;12.178;2023-07-22T14:42:49;25.90;62.00
8736;DHT22;4404;49.308;12.178;2023-07-22T14:44:51;24.70;61.60
8736;DHT22;4404;49.308;12.178;2023-07-22T14:46:54;25.90;62.50
8736;DHT22;4404;49.308;12.178;2023-07-22T14:48:56;26.10;62.00
8736;DHT22;4404;49.308;12.178;2023-07-22T14:51:03;26.00;60.60
8736;DHT22;4404;49.308;12.178;2023-07-22T14:53:06;26.20;58.90
8736;DHT22;4404;49.308;12.178;2023-07-22T14:55:08;26.20;59.70
8736;DHT22;4404;49.308;12.178;2023-07-22T14:57:11;26.30;59.00
8736;DHT22;4404;49.308;12.178;2023-07-22T14:59:15;26.40;59.50
8736;DHT22;4404;49.308;12.178;2023-07-22T15:01:21;26.50;59.30
8736;DHT22;4404;49.308;12.178;2023-07-22T15:03:23;26.50;58.80
8736;DHT22;4404;49.308;12.178;2023-07-22T15:05:27;26.20;57.90
8736;DHT22;4404;49.308;12.178;2023-07-22T15:07:31;26.20;58.60
8736;DHT22;4404;49.308;12.178;2023-07-22T15:09:33;26.10;58.90
8736;DHT22;4404;49.308;12.178;2023-07-22T15:11:38;26.10;57.80
8736;DHT22;4404;49.308;12.178;2023-07-22T15:13:40;25.90;57.40
8736;DHT22;4404;49.308;12.178;2023-07-22T15:15:42;25.80;58.20
8736;DHT22;4404;49.308;12.178;2023-07-22T15:17:45;25.90;58.40
8736;DHT22;4404;49.308;12.178;2023-07-22T15:19:48;26.00;58.90
8736;DHT22;4404;49.308;12.178;2023-07-22T15:21:51;25.90;57.50
8736;DHT22;4404;49.308;12.178;2023-07-22T15:25:59;25.50;57.50
8736;DHT22;4404;49.308;12.178;2023-07-22T15:28:01;25.60;60.30
8736;DHT22;4404;49.308;12.178;2023-07-22T15:30:05;25.60;58.60
8736;DHT22;4404;49.308;12.178;2023-07-22T15:32:08;25.80;61.70
8736;DHT22;4404;49.308;12.178;2023-07-22T15:34:10;25.90;58.10
8736;DHT22;4404;49.308;12.178;2023-07-22T15:36:13;25.80;57.70
8736;DHT22;4404;49.308;12.178;2023-07-22T15:38:15;25.80;57.70
8736;DHT22;4404;49.308;12.178;2023-07-22T15:40:19;25.80;58.20
8736;DHT22;4404;49.308;12.178;2023-07-22T15:42:21;25.60;58.50
8736;DHT22;4404;49.308;12.178;2023-07-22T15:44:23;25.70;59.40
8736;DHT22;4404;49.308;12.178;2023-07-22T15:46:27;25.90;59.20
8736;DHT22;4404;49.308;12.178;2023-07-22T15:48:30;26.30;59.50
8736;DHT22;4404;49.308;12.178;2023-07-22T15:50:33;26.20;57.10
8736;DHT22;4404;49.308;12.178;2023-07-22T15:52:37;26.00;57.50
8736;DHT22;4404;49.308;12.178;2023-07-22T15:54:39;26.10;58.50
8736;DHT22;4404;49.308;12.178;2023-07-22T15:56:42;26.30;58.40
8736;DHT22;4404;49.308;12.178;2023-07-22T15:58:44;26.50;57.10
8736;DHT22;4404;49.308;12.178;2023-07-22T16:00:46;26.60;56.80
8736;DHT22;4404;49.308;12.178;2023-07-22T16:02:48;26.50;56.00
8736;DHT22;4404;49.308;12.178;2023-07-22T16:04:51;26.60;57.50
8736;DHT22;4404;49.308;12.178;2023-07-22T16:06:53;26.60;55.70
8736;DHT22;4404;49.308;12.178;2023-07-22T16:08:55;26.50;56.00
8736;DHT22;4404;49.308;12.178;2023-07-22T16:10:57;26.30;56.50
8736;DHT22;4404;49.308;12.178;2023-07-22T16:13:01;26.10;56.80
8736;DHT22;4404;49.308;12.178;2023-07-22T16:15:04;26.10;55.50
8736;DHT22;4404;49.308;12.178;2023-07-22T16:17:07;25.80;56.90
8736;DHT22;4404;49.308;12.178;2023-07-22T16:19:09;25.80;57.20
8736;DHT22;4404;49.308;12.178;2023-07-22T16:21:11;25.80;56.10
8736;DHT22;4404;49.308;12.178;2023-07-22T16:23:14;25.80;56.50
8736;DHT22;4404;49.308;12.178;2023-07-22T16:25:16;25.90;56.80
8736;DHT22;4404;49.308;12.178;2023-07-22T16:27:18;26.10;55.90
8736;DHT22;4404;49.308;12.178;2023-07-22T16:29:21;26.10;55.70
8736;DHT22;4404;49.308;12.178;2023-07-22T16:31:23;26.30;56.50
8736;DHT22;4404;49.308;12.178;2023-07-22T16:33:26;26.30;56.00
8736;DHT22;4404;49.308;12.178;2023-07-22T16:35:28;26.20;56.10
8736;DHT22;4404;49.308;12.178;2023-07-22T16:37:33;26.10;55.30
8736;DHT22;4404;49.308;12.178;2023-07-22T16:39:35;26.20;55.80
8736;DHT22;4404;49.308;12.178;2023-07-22T16:41:40;26.10;55.50
8736;DHT22;4404;49.308;12.178;2023-07-22T16:43:42;26.00;55.60
8736;DHT22;4404;49.308;12.178;2023-07-22T16:45:45;26.00;56.20
8736;DHT22;4404;49.308;12.178;2023-07-22T16:47:47;26.00;55.80
8736;DHT22;4404;49.308;12.178;2023-07-22T16:49:50;25.80;55.10
8736;DHT22;4404;49.308;12.178;2023-07-22T16:52:07;25.60;55.60
8736;DHT22;4404;49.308;12.178;2023-07-22T16:54:18;25.50;55.40
8736;DHT22;4404;49.308;12.178;2023-07-22T16:56:29;25.40;55.70
8736;DHT22;4404;49.308;12.178;2023-07-22T16:58:38;25.40;56.00
8736;DHT22;4404;49.308;12.178;2023-07-22T17:03:51;25.00;55.60
8736;DHT22;4404;49.308;12.178;2023-07-22T17:05:54;25.30;57.00
8736;DHT22;4404;49.308;12.178;2023-07-22T17:07:57;25.20;57.00
8736;DHT22;4404;49.308;12.178;2023-07-22T17:10:00;25.30;57.50
8736;DHT22;4404;49.308;12.178;2023-07-22T17:12:03;25.30;57.50
8736;DHT22;4404;49.308;12.178;2023-07-22T17:14:06;25.40;58.10
8736;DHT22;4404;49.308;12.178;2023-07-22T17:16:08;25.40;57.50
8736;DHT22;4404;49.308;12.178;2023-07-22T17:18:11;25.40;57.20
8736;DHT22;4404;49.308;12.178;2023-07-22T17:20:20;25.40;57.40
8736;DHT22;4404;49.308;12.178;2023-07-22T17:22:23;25.30;57.50
8736;DHT22;4404;49.308;12.178;2023-07-22T17:24:25;25.30;57.10
8736;DHT22;4404;49.308;12.178;2023-07-22T17:26:28;25.40;58.00
8736;DHT22;4404;49.308;12.178;2023-07-22T17:28:31;25.30;59.50
8736;DHT22;4404;49.308;12.178;2023-07-22T17:30:32;25.20;58.00
8736;DHT22;4404;49.308;12.178;2023-07-22T17:32:34;25.30;59.20
8736;DHT22;4404;49.308;12.178;2023-07-22T17:34:36;25.20;58.20
8736;DHT22;4404;49.308;12.178;2023-07-22T17:36:43;25.30;57.60
8736;DHT22;4404;49.308;12.178;2023-07-22T17:38:48;25.20;57.80
8736;DHT22;4404;49.308;12.178;2023-07-22T17:40:52;25.30;58.00
8736;DHT22;4404;49.308;12.178;2023-07-22T17:42:54;25.10;57.50
8736;DHT22;4404;49.308;12.178;2023-07-22T17:44:56;24.80;58.10
8736;DHT22;4404;49.308;12.178;2023-07-22T17:47:00;24.90;58.20
8736;DHT22;4404;49.308;12.178;2023-07-22T17:49:07;24.70;58.00
8736;DHT22;4404;49.308;12.178;2023-07-22T17:51:09;24.70;58.10
8736;DHT22;4404;49.308;12.178;2023-07-22T17:53:13;24.80;60.30
8736;DHT22;4404;49.308;12.178;2023-07-22T17:55:15;24.80;59.30
8736;DHT22;4404;49.308;12.178;2023-07-22T17:57:18;24.80;59.10
8736;DHT22;4404;49.308;12.178;2023-07-22T17:59:20;24.70;58.20
8736;DHT22;4404;49.308;12.178;2023-07-22T18:01:22;24.80;60.40
8736;DHT22;4404;49.308;12.178;2023-07-22T18:03:24;24.80;58.60
8736;DHT22;4404;49.308;12.178;2023-07-22T18:05:26;24.70;58.30
8736;DHT22;4404;49.308;12.178;2023-07-22T18:07:29;24.70;58.70
8736;DHT22;4404;49.308;12.178;2023-07-22T18:09:33;24.70;58.70
8736;DHT22;4404;49.308;12.178;2023-07-22T18:11:35;24.70;65.60
8736;DHT22;4404;49.308;12.178;2023-07-22T18:13:37;24.70;62.90
8736;DHT22;4404;49.308;12.178;2023-07-22T18:15:40;24.50;61.40
8736;DHT22;4404;49.308;12.178;2023-07-22T18:17:42;24.50;64.20
8736;DHT22;4404;49.308;12.178;2023-07-22T18:19:57;24.40;64.10
8736;DHT22;4404;49.308;12.178;2023-07-22T18:22:03;24.40;61.50
8736;DHT22;4404;49.308;12.178;2023-07-22T18:24:05;24.30;61.10
8736;DHT22;4404;49.308;12.178;2023-07-22T18:26:10;24.30;65.20
8736;DHT22;4404;49.308;12.178;2023-07-22T18:28:36;24.30;67.90
8736;DHT22;4404;49.308;12.178;2023-07-22T18:31:09;23.60;67.40
8736;DHT22;4404;49.308;12.178;2023-07-22T18:33:13;24.20;66.60
8736;DHT22;4404;49.308;12.178;2023-07-22T18:35:16;24.20;66.40
8736;DHT22;4404;49.308;12.178;2023-07-22T18:37:18;24.10;63.80
8736;DHT22;4404;49.308;12.178;2023-07-22T18:39:20;24.10;65.90
8736;DHT22;4404;49.308;12.178;2023-07-22T18:41:24;24.00;67.10
8736;DHT22;4404;49.308;12.178;2023-07-22T18:43:28;23.90;68.30
8736;DHT22;4404;49.308;12.178;2023-07-22T18:45:30;23.80;68.60
8736;DHT22;4404;49.308;12.178;2023-07-22T18:47:32;23.80;69.30
8736;DHT22;4404;49.308;12.178;2023-07-22T18:49:35;23.80;68.20
8736;DHT22;4404;49.308;12.178;2023-07-22T18:51:37;23.60;67.90
8736;DHT22;4404;49.308;12.178;2023-07-22T18:53:43;23.90;68.70
8736;DHT22;4404;49.308;12.178;2023-07-22T18:55:45;23.90;68.30
8736;DHT22;4404;49.308;12.178;2023-07-22T18:57:49;24.00;68.20
8736;DHT22;4404;49.308;12.178;2023-07-22T19:00:02;24.00;68.90
8736;DHT22;4404;49.308;12.178;2023-07-22T19:02:06;23.90;69.50
8736;DHT22;4404;49.308;12.178;2023-07-22T19:04:08;23.80;69.00
8736;DHT22;4404;49.308;12.178;2023-07-22T19:06:10;23.80;69.20
8736;DHT22;4404;49.308;12.178;2023-07-22T19:08:13;23.70;69.60
8736;DHT22;4404;49.308;12.178;2023-07-22T19:10:15;23.60;69.50
8736;DHT22;4404;49.308;12.178;2023-07-22T19:12:17;23.60;69.30
8736;DHT22;4404;49.308;12.178;2023-07-22T19:14:21;23.50;69.90
8736;DHT22;4404;49.308;12.178;2023-07-22T19:16:24;23.40;69.80
8736;DHT22;4404;49.308;12.178;2023-07-22T19:18:27;23.40;70.90
8736;DHT22;4404;49.308;12.178;2023-07-22T19:20:29;23.30;71.70
8736;DHT22;4404;49.308;12.178;2023-07-22T19:22:33;23.30;71.60
8736;DHT22;4404;49.308;12.178;2023-07-22T19:24:35;23.20;72.50
8736;DHT22;4404;49.308;12.178;2023-07-22T19:26:37;23.30;72.10
8736;DHT22;4404;49.308;12.178;2023-07-22T19:28:39;23.30;72.10